Time;durP1;ratioP1;P1;durP2;ratioP2;P2;SDS_P1;SDS_P2;PMS_P1;PMS_P2;Temp;Humidity;BMP_temperature;BMP_pressure;BME280_temperature;BME280_humidity;BME280_pressure;Samples;Min_cycle;Max_cycle;Signal;HPM_P1;HPM_P2
2024/04/24 00:01:47;;;;;;;68.20;44.00;;;3.20;99.90;;;;;;5411048;26;20022;-76
2024/04/24 00:04:15;;;;;;;66.63;42.10;;;3.20;99.90;;;;;;5411514;26;20069;-72
2024/04/24 00:06:42;;;;;;;65.40;38.72;;;3.20;99.90;;;;;;5404358;26;20014;-75
2024/04/24 00:09:11;;;;;;;67.32;42.67;;;3.10;99.90;;;;;;5410638;26;20040;-75
2024/04/24 00:11:38;;;;;;;72.68;42.60;;;3.10;99.90;;;;;;5384005;26;20015;-74
2024/04/24 00:14:06;;;;;;;79.50;44.90;;;3.20;99.90;;;;;;5349696;26;20635;-76
2024/04/24 00:16:37;;;;;;;74.85;44.13;;;3.20;99.90;;;;;;5375646;26;20009;-75
2024/04/24 00:19:04;;;;;;;77.10;43.33;;;3.20;99.90;;;;;;5375515;26;20001;-74
2024/04/24 00:21:31;;;;;;;80.90;43.22;;;3.20;99.90;;;;;;5369096;26;20020;-75
2024/04/24 00:23:58;;;;;;;80.38;48.50;;;3.10;99.90;;;;;;5376191;26;20004;-74
2024/04/24 00:26:26;;;;;;;78.65;46.05;;;3.20;99.90;;;;;;5398147;26;20003;-74
2024/04/24 00:28:54;;;;;;;76.63;43.70;;;3.20;99.90;;;;;;5429174;26;20008;-75
2024/04/24 00:31:22;;;;;;;87.53;49.03;;;3.20;99.90;;;;;;5385550;26;20015;-75
2024/04/24 00:33:49;;;;;;;93.80;50.05;;;3.20;99.90;;;;;;5356094;26;19997;-76
2024/04/24 00:36:17;;;;;;;92.15;48.58;;;3.20;99.90;;;;;;5353190;26;20022;-75
2024/04/24 00:38:44;;;;;;;79.50;43.85;;;3.20;99.90;;;;;;5413542;26;19995;-75
2024/04/24 00:41:12;;;;;;;86.90;47.05;;;3.20;99.90;;;;;;5398158;26;20003;-75
2024/04/24 00:43:39;;;;;;;82.13;44.53;;;3.10;99.90;;;;;;5399271;26;20570;-74
2024/04/24 00:46:10;;;;;;;89.80;46.53;;;3.10;99.90;;;;;;5359985;26;20003;-73
2024/04/24 00:48:42;;;;;;;82.22;45.55;;;3.20;99.90;;;;;;5401770;26;20003;-75
2024/04/24 00:51:11;;;;;;;86.38;43.75;;;3.10;99.90;;;;;;5398722;26;20089;-74
2024/04/24 00:53:39;;;;;;;90.70;48.40;;;3.10;99.90;;;;;;5402913;26;20054;-76
2024/04/24 00:56:06;;;;;;;87.13;47.17;;;3.20;99.90;;;;;;5399082;26;19995;-75
2024/04/24 00:58:37;;;;;;;94.10;48.45;;;3.20;99.90;;;;;;5383388;26;20004;-75
2024/04/24 01:01:06;;;;;;;91.35;47.25;;;3.30;99.90;;;;;;5413291;26;20242;-75
2024/04/24 01:03:33;;;;;;;94.60;46.50;;;3.30;99.90;;;;;;5418411;26;20052;-74
2024/04/24 01:06:02;;;;;;;96.88;46.15;;;3.40;99.90;;;;;;5441772;26;20089;-75
2024/04/24 01:08:29;;;;;;;98.72;50.38;;;3.40;99.90;;;;;;5415442;26;20018;-74
2024/04/24 01:10:59;;;;;;;95.25;48.47;;;3.40;99.90;;;;;;5414738;26;20015;-75
2024/04/24 01:13:27;;;;;;;85.10;43.75;;;3.40;99.90;;;;;;5416738;26;20046;-74
2024/04/24 01:16:11;;;;;;;93.63;48.95;;;3.50;99.90;;;;;;5413146;26;20022;-73
2024/04/24 01:18:47;;;;;;;101.28;49.95;;;3.40;99.90;;;;;;5418064;26;20010;-75
2024/04/24 01:21:15;;;;;;;86.90;42.70;;;3.40;99.90;;;;;;5409869;26;19999;-73
2024/04/24 01:23:51;;;;;;;99.32;49.33;;;3.40;99.90;;;;;;5414046;26;20056;-74
2024/04/24 01:26:40;;;;;;;109.78;47.50;;;3.50;99.90;;;;;;5406332;26;20017;-75
2024/04/24 01:29:07;;;;;;;110.60;52.65;;;3.60;99.90;;;;;;5412695;26;20000;-74
2024/04/24 01:31:35;;;;;;;104.03;51.15;;;3.60;99.90;;;;;;5415232;26;20027;-74
2024/04/24 01:34:02;;;;;;;119.00;53.20;;;3.60;99.90;;;;;;5381420;26;20015;-74
2024/04/24 01:36:30;;;;;;;97.63;47.80;;;3.60;99.90;;;;;;5413711;26;19999;-75
2024/04/24 01:38:57;;;;;;;108.82;49.95;;;3.60;99.90;;;;;;5392985;26;21805;-74
2024/04/24 01:41:24;;;;;;;102.57;51.25;;;3.70;99.90;;;;;;5412404;26;20084;-74
2024/04/24 01:43:53;;;;;;;102.40;47.63;;;3.60;99.90;;;;;;5411152;26;20006;-73
2024/04/24 01:46:20;;;;;;;94.90;47.95;;;3.70;99.90;;;;;;5415091;26;19996;-74
2024/04/24 01:48:47;;;;;;;76.40;40.97;;;3.70;99.90;;;;;;5445777;26;19999;-73
2024/04/24 01:51:14;;;;;;;79.72;42.92;;;3.60;99.90;;;;;;5343859;26;19999;-74
2024/04/24 01:53:41;;;;;;;81.03;39.72;;;3.60;99.90;;;;;;5342557;26;19996;-74
2024/04/24 01:56:12;;;;;;;78.65;41.10;;;3.50;99.90;;;;;;5385918;26;20012;-75
2024/04/24 01:58:40;;;;;;;74.97;41.90;;;3.50;99.90;;;;;;5396431;26;20019;-75
2024/04/24 02:01:07;;;;;;;84.53;41.75;;;3.60;99.90;;;;;;5370660;26;20194;-74
2024/04/24 02:03:34;;;;;;;81.38;43.53;;;3.60;99.90;;;;;;5356838;26;20008;-75
2024/04/24 02:06:01;;;;;;;74.00;39.30;;;3.60;99.90;;;;;;5345408;26;20012;-74
2024/04/24 02:08:28;;;;;;;69.85;37.35;;;3.60;99.90;;;;;;5351294;26;20012;-75
2024/04/24 02:10:56;;;;;;;77.93;40.55;;;3.60;99.90;;;;;;5363008;26;20486;-75
2024/04/24 02:13:23;;;;;;;83.22;41.33;;;3.60;99.90;;;;;;5380002;26;20000;-76
2024/04/24 02:15:51;;;;;;;76.38;38.53;;;3.70;99.90;;;;;;5300951;26;20880;-74
2024/04/24 02:18:19;;;;;;;78.53;38.78;;;3.60;99.90;;;;;;5345482;26;20794;-74
2024/04/24 02:20:46;;;;;;;84.32;41.95;;;3.70;99.90;;;;;;5343740;26;20015;-75
2024/04/24 02:23:20;;;;;;;83.15;42.60;;;3.70;99.90;;;;;;5371071;26;20004;-75
2024/04/24 02:25:48;;;;;;;80.20;37.47;;;3.70;99.90;;;;;;5361521;26;19995;-75
2024/04/24 02:28:16;;;;;;;71.53;38.10;;;3.70;99.90;;;;;;5380254;26;20023;-76
2024/04/24 02:30:43;;;;;;;71.25;37.35;;;3.60;99.90;;;;;;5350854;26;20022;-76
2024/04/24 02:33:10;;;;;;;59.40;32.53;;;3.70;99.90;;;;;;5352262;26;20019;-75
2024/04/24 02:35:42;;;;;;;67.47;33.60;;;3.60;99.90;;;;;;5387996;26;20007;-75
2024/04/24 02:38:09;;;;;;;53.75;28.75;;;3.60;99.90;;;;;;5409225;26;20940;-76
2024/04/24 02:40:37;;;;;;;65.40;34.60;;;3.50;99.90;;;;;;5380272;26;20046;-76
2024/04/24 02:43:04;;;;;;;67.50;36.10;;;3.50;99.90;;;;;;5373546;26;20074;-75
2024/04/24 02:45:32;;;;;;;63.75;35.88;;;3.60;99.90;;;;;;5381277;26;20324;-75
2024/04/24 02:48:01;;;;;;;57.28;34.72;;;3.50;99.90;;;;;;5352703;26;20005;-73
2024/04/24 02:50:28;;;;;;;66.80;36.63;;;3.50;99.90;;;;;;5393681;26;20079;-75
2024/04/24 02:52:56;;;;;;;72.45;37.38;;;3.50;99.90;;;;;;5384580;26;20414;-75
2024/04/24 02:55:24;;;;;;;65.13;34.95;;;3.50;99.90;;;;;;5353189;26;20050;-75
2024/04/24 02:57:51;;;;;;;58.00;32.55;;;3.50;99.90;;;;;;5385786;26;20022;-72
2024/04/24 03:00:18;;;;;;;61.20;34.40;;;3.50;99.90;;;;;;5382884;26;20015;-75
2024/04/24 03:02:45;;;;;;;54.60;29.58;;;3.50;99.90;;;;;;5388891;26;20019;-74
2024/04/24 03:05:13;;;;;;;56.67;31.75;;;3.50;99.90;;;;;;5378655;26;20007;-76
2024/04/24 03:07:40;;;;;;;62.63;34.35;;;3.60;99.90;;;;;;5387161;26;20007;-76
2024/04/24 03:10:07;;;;;;;64.60;34.75;;;3.50;99.90;;;;;;5350546;26;20008;-75
2024/04/24 03:12:34;;;;;;;67.05;36.10;;;3.60;99.90;;;;;;5380040;26;20014;-75
2024/04/24 03:15:01;;;;;;;61.35;31.60;;;3.60;99.90;;;;;;5383342;26;20000;-75
2024/04/24 03:17:28;;;;;;;71.00;36.05;;;3.60;99.90;;;;;;5437639;26;20035;-75
2024/04/24 03:19:56;;;;;;;61.67;31.50;;;3.60;99.90;;;;;;5375854;26;20014;-75
2024/04/24 03:22:23;;;;;;;55.10;30.13;;;3.70;99.90;;;;;;5384789;26;20012;-74
2024/04/24 03:24:51;;;;;;;60.50;29.77;;;3.60;99.90;;;;;;5354363;26;20006;-75
2024/04/24 03:27:19;;;;;;;54.67;29.60;;;3.60;99.90;;;;;;5383372;26;20025;-75
2024/04/24 03:29:47;;;;;;;55.95;31.58;;;3.60;99.90;;;;;;5381375;26;20044;-73
2024/04/24 03:32:14;;;;;;;56.05;30.55;;;3.60;99.90;;;;;;5382851;26;20011;-72
2024/04/24 03:34:41;;;;;;;53.33;28.33;;;3.60;99.90;;;;;;5380102;26;20011;-73
2024/04/24 03:37:08;;;;;;;51.33;27.73;;;3.50;99.90;;;;;;5369655;26;20017;-75
2024/04/24 03:39:37;;;;;;;42.83;23.35;;;3.60;99.90;;;;;;5386999;26;20003;-72
2024/04/24 03:42:05;;;;;;;46.53;25.67;;;3.50;99.90;;;;;;5374637;26;20000;-73
2024/04/24 03:44:32;;;;;;;51.08;26.92;;;3.50;99.90;;;;;;5381249;26;20003;-74
2024/04/24 03:46:59;;;;;;;44.75;26.55;;;3.50;99.90;;;;;;5405120;26;20003;-73
2024/04/24 03:49:26;;;;;;;42.85;23.90;;;3.50;99.90;;;;;;5394808;26;20062;-74
2024/04/24 03:51:53;;;;;;;43.42;25.85;;;3.50;99.90;;;;;;5386260;26;20000;-76
2024/04/24 03:54:20;;;;;;;36.53;21.95;;;3.50;99.90;;;;;;5382877;26;20040;-73
2024/04/24 03:56:48;;;;;;;47.20;24.02;;;3.50;99.90;;;;;;5391278;26;20032;-75
2024/04/24 03:59:14;;;;;;;38.53;20.40;;;3.50;99.90;;;;;;5371909;26;20012;-72
2024/04/24 04:01:42;;;;;;;34.67;22.85;;;3.50;99.90;;;;;;5380764;26;20083;-74
2024/04/24 04:04:09;;;;;;;40.85;24.30;;;3.50;99.90;;;;;;5344151;26;20427;-74
2024/04/24 04:06:36;;;;;;;31.27;21.05;;;3.50;99.90;;;;;;5391756;26;20323;-74
2024/04/24 04:09:03;;;;;;;27.70;19.40;;;3.40;99.90;;;;;;5385463;26;20894;-74
2024/04/24 04:11:31;;;;;;;36.75;21.35;;;3.40;99.90;;;;;;5411520;26;20468;-75
2024/04/24 04:13:59;;;;;;;35.67;20.25;;;3.40;99.90;;;;;;5343126;26;20333;-74
2024/04/24 04:16:28;;;;;;;31.80;20.95;;;3.40;99.90;;;;;;5388295;26;20142;-74
2024/04/24 04:18:55;;;;;;;32.67;19.85;;;3.40;99.90;;;;;;5387665;26;20000;-73
2024/04/24 04:21:22;;;;;;;35.03;19.27;;;3.40;99.90;;;;;;5394425;26;20010;-74
2024/04/24 04:23:49;;;;;;;28.27;19.13;;;3.40;99.90;;;;;;5353725;26;20027;-73
2024/04/24 04:26:16;;;;;;;38.08;19.23;;;3.50;99.90;;;;;;5352346;26;21332;-74
2024/04/24 04:28:44;;;;;;;35.92;19.88;;;3.40;99.90;;;;;;5372947;26;20015;-74
2024/04/24 04:31:11;;;;;;;31.83;18.42;;;3.40;99.90;;;;;;5376433;26;20474;-74
2024/04/24 04:33:38;;;;;;;31.83;18.30;;;3.40;99.90;;;;;;5383495;26;19999;-75
2024/04/24 04:36:05;;;;;;;33.20;17.95;;;3.40;99.90;;;;;;5386506;26;20011;-74
2024/04/24 04:38:33;;;;;;;30.55;17.52;;;3.40;99.90;;;;;;5353201;26;20747;-75
2024/04/24 04:41:00;;;;;;;28.98;18.13;;;3.40;99.90;;;;;;5344633;26;20054;-75
2024/04/24 04:43:29;;;;;;;29.02;18.58;;;3.50;99.90;;;;;;5343899;26;20455;-75
2024/04/24 04:45:56;;;;;;;33.88;17.60;;;3.40;99.90;;;;;;5321136;26;20046;-73
2024/04/24 04:48:25;;;;;;;30.42;16.88;;;3.40;99.90;;;;;;5313564;26;20054;-74
2024/04/24 04:50:52;;;;;;;30.30;18.80;;;3.40;99.90;;;;;;5315882;26;20767;-76
2024/04/24 04:53:19;;;;;;;27.67;17.25;;;3.40;99.90;;;;;;5340311;26;20012;-75
2024/04/24 04:55:47;;;;;;;22.60;15.00;;;3.40;99.90;;;;;;5327365;26;19995;-74
2024/04/24 04:58:14;;;;;;;27.02;17.55;;;3.40;99.90;;;;;;5342816;26;20048;-72
2024/04/24 05:00:41;;;;;;;35.30;19.40;;;3.40;99.90;;;;;;5381685;26;20000;-74
2024/04/24 05:03:09;;;;;;;22.65;15.40;;;3.40;99.90;;;;;;5369885;26;20035;-74
2024/04/24 05:05:36;;;;;;;21.20;16.45;;;3.40;99.90;;;;;;5355625;26;20007;-74
2024/04/24 05:08:04;;;;;;;30.52;17.67;;;3.50;99.90;;;;;;5317008;26;20454;-75
2024/04/24 05:10:31;;;;;;;22.50;15.10;;;3.40;99.90;;;;;;5427421;26;20047;-75
2024/04/24 05:12:58;;;;;;;24.73;15.98;;;3.50;99.90;;;;;;5348154;26;20551;-76
2024/04/24 05:15:27;;;;;;;18.58;15.57;;;3.50;99.90;;;;;;5370984;26;20014;-73
2024/04/24 05:17:54;;;;;;;23.13;14.77;;;3.50;99.90;;;;;;5377571;26;20039;-73
2024/04/24 05:20:21;;;;;;;24.65;15.95;;;3.40;99.90;;;;;;5374920;26;20007;-76
2024/04/24 05:22:50;;;;;;;28.40;15.93;;;3.40;99.90;;;;;;5378081;26;20000;-74
2024/04/24 05:25:18;;;;;;;27.80;16.90;;;3.40;99.90;;;;;;5376574;26;19996;-73
2024/04/24 05:30:31;;;;;;;22.60;14.88;;;3.40;99.90;;;;;;5374696;26;20861;-74
2024/04/24 05:32:58;;;;;;;25.70;15.30;;;3.30;99.90;;;;;;5378316;26;20010;-75
2024/04/24 05:35:27;;;;;;;18.38;14.85;;;3.40;99.90;;;;;;5377387;26;20618;-72
2024/04/24 05:37:54;;;;;;;16.25;14.70;;;3.30;99.90;;;;;;5379924;26;20003;-75
2024/04/24 05:40:21;;;;;;;27.45;17.02;;;3.30;99.90;;;;;;5342281;26;20014;-76
2024/04/24 05:42:48;;;;;;;18.45;15.18;;;3.40;99.90;;;;;;5380617;26;20000;-74
2024/04/24 05:45:15;;;;;;;25.90;16.35;;;3.60;99.90;;;;;;5370880;26;20922;-75
2024/04/24 05:47:45;;;;;;;17.30;15.68;;;3.70;99.90;;;;;;5378540;26;20311;-74
2024/04/24 05:50:13;;;;;;;23.13;15.88;;;3.70;99.90;;;;;;5374388;26;20012;-74
2024/04/24 05:52:40;;;;;;;23.50;16.05;;;3.60;99.90;;;;;;5374042;26;20007;-75
2024/04/24 05:55:10;;;;;;;22.50;15.15;;;3.60;99.90;;;;;;5385338;26;20222;-74
2024/04/24 05:57:37;;;;;;;22.85;16.08;;;3.60;99.90;;;;;;5378203;26;19995;-76
2024/04/24 06:00:06;;;;;;;17.50;15.68;;;3.60;99.90;;;;;;5379085;26;20000;-73
2024/04/24 06:02:34;;;;;;;20.63;15.68;;;3.60;99.90;;;;;;5314009;26;20026;-76
2024/04/24 06:05:02;;;;;;;20.50;15.00;;;3.60;99.90;;;;;;5346385;26;20015;-75
2024/04/24 06:07:29;;;;;;;26.33;16.55;;;3.70;99.90;;;;;;5338123;26;20001;-75
2024/04/24 06:09:56;;;;;;;29.05;16.98;;;3.70;99.90;;;;;;5340021;26;20008;-72
2024/04/24 06:12:23;;;;;;;20.20;15.70;;;3.70;99.90;;;;;;5339750;26;20004;-75
2024/04/24 06:14:51;;;;;;;20.55;15.77;;;3.80;99.90;;;;;;5372898;26;20061;-75
2024/04/24 06:17:18;;;;;;;23.38;17.58;;;3.70;99.90;;;;;;5343145;26;20008;-75
2024/04/24 06:19:45;;;;;;;19.48;16.75;;;3.80;99.90;;;;;;5340838;26;20007;-74
2024/04/24 06:22:12;;;;;;;18.88;16.98;;;3.80;99.90;;;;;;5392705;26;20007;-75
2024/04/24 06:24:39;;;;;;;25.73;17.15;;;3.70;99.90;;;;;;5312113;26;20559;-75
2024/04/24 06:27:06;;;;;;;21.80;15.90;;;3.70;99.90;;;;;;5368388;26;20008;-76
2024/04/24 06:29:33;;;;;;;24.65;18.23;;;3.80;99.90;;;;;;5376691;26;20011;-74
2024/04/24 06:32:01;;;;;;;20.30;18.15;;;3.90;99.90;;;;;;5382279;26;20225;-75
2024/04/24 06:34:29;;;;;;;29.08;19.40;;;3.80;99.90;;;;;;5370504;26;20081;-75
2024/04/24 06:36:56;;;;;;;21.25;18.98;;;3.90;99.90;;;;;;5382279;26;19999;-75
2024/04/24 06:39:23;;;;;;;20.67;18.42;;;3.90;99.90;;;;;;5383380;26;20013;-74
2024/04/24 06:41:50;;;;;;;28.00;19.48;;;3.90;99.90;;;;;;5377387;26;20000;-75
2024/04/24 06:44:17;;;;;;;22.13;19.02;;;4.00;99.90;;;;;;5364860;26;20016;-76
2024/04/24 06:46:45;;;;;;;22.95;17.38;;;4.10;99.90;;;;;;5384845;26;20516;-73
2024/04/24 06:49:12;;;;;;;22.42;20.08;;;4.10;99.90;;;;;;5381434;26;20004;-74
2024/04/24 06:51:40;;;;;;;22.80;19.85;;;3.90;99.90;;;;;;5381284;26;20015;-73
2024/04/24 06:54:07;;;;;;;24.15;21.70;;;3.80;99.90;;;;;;5372056;26;20797;-73
2024/04/24 06:56:36;;;;;;;25.42;21.55;;;3.80;99.90;;;;;;5388868;26;20015;-75
2024/04/24 06:59:03;;;;;;;22.05;19.85;;;3.90;99.90;;;;;;5379117;26;20018;-74
2024/04/24 07:01:31;;;;;;;26.40;24.08;;;4.20;99.90;;;;;;5378834;26;20779;-74
2024/04/24 07:03:58;;;;;;;27.13;24.40;;;4.20;99.90;;;;;;5389037;26;20698;-73
2024/04/24 07:06:26;;;;;;;24.80;22.80;;;4.10;99.90;;;;;;5382624;26;19999;-72
2024/04/24 07:08:53;;;;;;;25.60;22.77;;;4.10;99.90;;;;;;5395697;26;20000;-74
2024/04/24 07:11:20;;;;;;;25.60;23.08;;;4.20;99.90;;;;;;5378168;26;20854;-74
2024/04/24 07:13:47;;;;;;;23.30;21.42;;;4.30;99.90;;;;;;5384615;26;20011;-74
2024/04/24 07:16:15;;;;;;;25.17;22.67;;;4.10;99.90;;;;;;5377458;26;20008;-75
2024/04/24 07:18:43;;;;;;;22.92;20.65;;;4.00;99.90;;;;;;5438745;26;20003;-73
2024/04/24 07:21:10;;;;;;;21.80;20.05;;;4.20;99.90;;;;;;5358104;26;20004;-73
2024/04/24 07:23:38;;;;;;;25.15;22.85;;;4.40;99.90;;;;;;5386057;26;21268;-76
2024/04/24 07:26:05;;;;;;;29.05;26.25;;;4.40;99.90;;;;;;5385022;26;20172;-74
2024/04/24 07:28:32;;;;;;;24.23;22.33;;;4.30;99.90;;;;;;5370269;26;21989;-74
2024/04/24 07:31:00;;;;;;;25.25;23.17;;;4.30;99.90;;;;;;5383837;26;20526;-75
2024/04/24 07:33:30;;;;;;;24.58;21.90;;;4.30;99.90;;;;;;5375829;26;20012;-74
2024/04/24 07:35:57;;;;;;;26.35;23.23;;;4.40;99.90;;;;;;5392876;26;20544;-74
2024/04/24 07:38:25;;;;;;;25.13;23.30;;;4.50;99.90;;;;;;5378550;26;20003;-74
2024/04/24 07:40:52;;;;;;;24.77;22.77;;;4.50;99.90;;;;;;5391072;26;20018;-74
2024/04/24 07:43:19;;;;;;;24.63;22.63;;;4.60;99.90;;;;;;5410400;26;19996;-73
2024/04/24 07:45:47;;;;;;;25.73;23.25;;;4.60;99.90;;;;;;5408531;26;20003;-72
2024/04/24 07:48:17;;;;;;;24.25;22.17;;;4.70;99.90;;;;;;5392607;26;20000;-72
2024/04/24 07:50:46;;;;;;;25.90;23.65;;;4.80;99.90;;;;;;5377593;26;20027;-74
2024/04/24 07:53:13;;;;;;;25.92;23.45;;;4.60;99.90;;;;;;5361499;26;19995;-74
2024/04/24 07:55:41;;;;;;;24.80;22.60;;;4.60;99.90;;;;;;5354062;26;21134;-74
2024/04/24 07:58:08;;;;;;;25.00;22.92;;;4.60;99.90;;;;;;5338721;26;20000;-75
2024/04/24 08:00:34;;;;;;;25.33;22.67;;;4.30;99.90;;;;;;5344803;26;20523;-74
2024/04/24 08:03:02;;;;;;;25.23;22.42;;;4.30;99.90;;;;;;5349945;26;20102;-74
2024/04/24 08:05:29;;;;;;;23.00;20.48;;;4.20;99.90;;;;;;5348530;26;20725;-74
2024/04/24 08:07:56;;;;;;;23.98;21.63;;;4.30;99.90;;;;;;5411363;26;20011;-74
2024/04/24 08:10:23;;;;;;;24.10;20.58;;;4.30;99.90;;;;;;5405050;26;20011;-75
2024/04/24 08:12:50;;;;;;;23.02;18.73;;;4.30;99.90;;;;;;5383461;26;20012;-76
2024/04/24 08:15:17;;;;;;;25.55;20.90;;;4.50;99.90;;;;;;5344793;26;20059;-73
2024/04/24 08:17:46;;;;;;;25.88;19.25;;;4.30;99.90;;;;;;5352574;26;20522;-74
2024/04/24 08:20:14;;;;;;;22.70;17.90;;;4.10;99.90;;;;;;5399653;26;20020;-75
2024/04/24 08:22:42;;;;;;;18.08;15.80;;;3.90;99.90;;;;;;5375204;26;20114;-76
2024/04/24 08:25:09;;;;;;;25.58;15.95;;;3.60;99.90;;;;;;5321857;26;22891;-76
2024/04/24 08:27:36;;;;;;;21.38;16.38;;;3.60;99.90;;;;;;5349984;26;21020;-75
2024/04/24 08:30:04;;;;;;;27.48;16.90;;;3.70;99.90;;;;;;5339271;26;20011;-74
2024/04/24 08:32:32;;;;;;;28.92;17.35;;;3.80;99.90;;;;;;5369019;26;21374;-76
2024/04/24 08:34:59;;;;;;;26.25;15.48;;;3.80;99.90;;;;;;5386176;26;20003;-75
2024/04/24 08:37:27;;;;;;;23.77;15.50;;;3.70;99.90;;;;;;5379021;26;20354;-75
2024/04/24 08:39:54;;;;;;;21.55;14.52;;;3.70;99.90;;;;;;5404387;26;20004;-76
2024/04/24 08:42:22;;;;;;;23.48;14.48;;;3.70;99.90;;;;;;5386870;26;20047;-81
2024/04/24 08:44:50;;;;;;;27.95;14.77;;;3.70;99.90;;;;;;5354113;26;20595;-75
2024/04/24 08:47:20;;;;;;;19.55;13.85;;;3.80;99.90;;;;;;5391390;26;20040;-76
2024/04/24 08:49:49;;;;;;;30.10;15.48;;;3.80;99.90;;;;;;5379882;26;19999;-76
2024/04/24 08:52:20;;;;;;;18.13;14.65;;;3.70;99.90;;;;;;5370683;26;20749;-75
2024/04/24 08:54:51;;;;;;;18.60;13.32;;;3.70;99.90;;;;;;5367085;26;20019;-76
2024/04/24 08:57:18;;;;;;;28.40;18.95;;;3.70;99.90;;;;;;5381820;26;20018;-75
2024/04/24 08:59:47;;;;;;;22.48;14.45;;;3.80;99.90;;;;;;5362727;26;20015;-75
2024/04/24 09:02:18;;;;;;;22.92;15.13;;;3.70;99.90;;;;;;5385602;26;20000;-74
2024/04/24 09:04:49;;;;;;;20.13;15.88;;;3.60;99.90;;;;;;5357172;26;20078;-73
2024/04/24 09:07:19;;;;;;;23.95;16.25;;;3.60;99.90;;;;;;5350528;26;20015;-76
2024/04/24 09:09:47;;;;;;;25.02;16.05;;;3.60;99.90;;;;;;5348715;26;21596;-76
2024/04/24 09:12:15;;;;;;;20.67;14.48;;;3.70;99.90;;;;;;5347960;26;20773;-75
2024/04/24 09:14:44;;;;;;;24.67;15.85;;;3.60;99.90;;;;;;5380301;26;20870;-77
2024/04/24 09:17:12;;;;;;;31.70;18.05;;;3.50;99.90;;;;;;5350392;26;20004;-75
2024/04/24 09:19:39;;;;;;;27.67;18.15;;;3.60;99.90;;;;;;5378202;26;20065;-76
2024/04/24 09:22:07;;;;;;;34.70;18.10;;;3.60;99.90;;;;;;5377514;26;20015;-75
2024/04/24 09:24:36;;;;;;;30.23;18.67;;;3.70;99.90;;;;;;5351775;26;20084;-77
2024/04/24 09:27:03;;;;;;;31.85;17.30;;;3.90;99.90;;;;;;5380565;26;20754;-77
2024/04/24 09:29:34;;;;;;;29.58;15.43;;;4.00;99.90;;;;;;5373544;26;20020;-75
2024/04/24 09:32:03;;;;;;;21.02;13.30;;;4.10;99.90;;;;;;5379466;26;19996;-76
2024/04/24 09:34:31;;;;;;;20.70;14.15;;;4.10;99.90;;;;;;5375681;26;20567;-76
2024/04/24 09:36:59;;;;;;;18.17;13.13;;;4.10;99.90;;;;;;5383486;26;20672;-76
2024/04/24 09:39:26;;;;;;;17.13;13.13;;;4.10;99.90;;;;;;5339115;26;20003;-74
2024/04/24 09:41:54;;;;;;;21.67;14.88;;;4.10;99.90;;;;;;5382841;26;20458;-74
2024/04/24 09:44:27;;;;;;;21.08;15.38;;;4.20;99.90;;;;;;5349820;26;20021;-75
2024/04/24 09:46:56;;;;;;;24.92;16.17;;;4.10;99.90;;;;;;5348309;26;20046;-74
2024/04/24 09:49:24;;;;;;;18.25;15.32;;;4.10;99.90;;;;;;5386530;26;20027;-73
2024/04/24 09:51:51;;;;;;;22.98;15.25;;;4.00;99.90;;;;;;5392644;26;20045;-76
2024/04/24 09:54:21;;;;;;;22.10;16.17;;;4.00;99.90;;;;;;5350499;26;20019;-73
2024/04/24 09:56:53;;;;;;;29.73;16.27;;;3.80;99.90;;;;;;5383697;26;22058;-77
2024/04/24 09:59:28;;;;;;;25.05;17.42;;;3.70;99.90;;;;;;5364238;26;20676;-75
2024/04/24 10:02:06;;;;;;;22.73;16.85;;;3.70;99.90;;;;;;5441784;26;20009;-74
2024/04/24 10:04:39;;;;;;;25.50;18.52;;;3.70;99.90;;;;;;5390882;26;20017;-75
2024/04/24 10:07:08;;;;;;;28.08;17.33;;;3.80;99.90;;;;;;5381777;26;20003;-75
2024/04/24 10:09:41;;;;;;;26.65;18.60;;;4.10;99.90;;;;;;5382576;26;19999;-76
2024/04/24 10:12:29;;;;;;;31.83;19.80;;;4.20;99.90;;;;;;5401239;26;19995;-76
2024/04/24 10:15:07;;;;;;;27.90;17.25;;;4.10;99.90;;;;;;5366341;26;20003;-76
2024/04/24 10:17:36;;;;;;;25.95;16.88;;;4.20;99.90;;;;;;5383509;26;20069;-73
2024/04/24 10:20:04;;;;;;;30.33;18.15;;;4.20;99.90;;;;;;5398306;26;19999;-74
2024/04/24 10:22:46;;;;;;;25.40;18.67;;;4.30;99.90;;;;;;5370079;26;22200;-72
2024/04/24 10:25:17;;;;;;;26.30;19.25;;;4.50;99.90;;;;;;5365799;26;20007;-73
2024/04/24 10:27:46;;;;;;;26.75;17.95;;;4.80;99.90;;;;;;5353523;26;20003;-75
2024/04/24 10:30:15;;;;;;;23.92;18.73;;;4.80;99.90;;;;;;5389957;26;20004;-74
2024/04/24 10:32:42;;;;;;;26.40;20.85;;;4.70;99.90;;;;;;5371164;26;20021;-77
2024/04/24 10:35:11;;;;;;;24.30;20.33;;;4.70;99.90;;;;;;5384042;26;20077;-76
2024/04/24 10:37:38;;;;;;;25.60;21.35;;;4.70;99.90;;;;;;5378638;26;20007;-75
2024/04/24 10:40:16;;;;;;;25.33;21.67;;;4.60;99.90;;;;;;5383555;26;20007;-74
2024/04/24 10:42:43;;;;;;;33.97;23.58;;;4.60;99.90;;;;;;5368766;26;20084;-75
2024/04/24 10:45:17;;;;;;;29.92;22.67;;;4.60;99.90;;;;;;5371469;26;20024;-76
2024/04/24 10:47:47;;;;;;;26.55;20.05;;;4.50;99.90;;;;;;5377461;26;19999;-75
2024/04/24 10:50:15;;;;;;;27.55;22.13;;;4.40;99.90;;;;;;5384768;26;20010;-76
2024/04/24 10:52:53;;;;;;;32.67;21.50;;;4.40;99.90;;;;;;5374265;26;20021;-76
2024/04/24 10:55:20;;;;;;;29.17;22.55;;;4.60;99.90;;;;;;5355478;26;20003;-75
2024/04/24 10:57:49;;;;;;;40.22;23.77;;;4.70;99.90;;;;;;5371295;26;20011;-73
2024/04/24 11:00:21;;;;;;;26.27;21.75;;;5.20;99.90;;;;;;5386144;26;20015;-75
2024/04/24 11:02:51;;;;;;;30.30;21.88;;;5.20;99.90;;;;;;5369697;26;22382;-75
2024/04/24 11:05:22;;;;;;;26.10;23.08;;;5.30;99.90;;;;;;5375593;26;20081;-74
2024/04/24 11:08:00;;;;;;;25.73;23.25;;;5.30;99.90;;;;;;5376585;26;20007;-75
2024/04/24 11:10:34;;;;;;;22.02;19.77;;;5.30;99.90;;;;;;5380297;26;20007;-76
2024/04/24 11:13:11;;;;;;;23.15;21.65;;;5.70;99.90;;;;;;5375229;26;20469;-74
2024/04/24 11:15:38;;;;;;;25.38;23.27;;;5.70;99.90;;;;;;5366090;26;20016;-77
2024/04/24 11:18:16;;;;;;;25.83;23.52;;;5.80;99.90;;;;;;5376134;26;20008;-76
2024/04/24 11:20:43;;;;;;;24.73;22.30;;;6.10;99.90;;;;;;5339781;26;20074;-76
2024/04/24 11:23:10;;;;;;;27.15;24.63;;;6.30;99.90;;;;;;5349551;26;20519;-76
2024/04/24 11:25:48;;;;;;;24.73;22.50;;;6.30;99.90;;;;;;5351553;26;19999;-76
2024/04/24 11:28:25;;;;;;;30.75;28.40;;;6.30;99.90;;;;;;5369317;26;20015;-75
2024/04/24 11:30:53;;;;;;;24.77;22.85;;;6.30;99.90;;;;;;5379129;26;20004;-75
2024/04/24 11:33:21;;;;;;;26.40;24.48;;;6.40;99.90;;;;;;5384301;26;20000;-74
2024/04/24 11:35:50;;;;;;;27.35;25.13;;;6.90;99.90;;;;;;5379150;26;21685;-74
2024/04/24 11:38:17;;;;;;;27.65;25.70;;;7.10;99.90;;;;;;5388338;26;20698;-75
2024/04/24 11:40:45;;;;;;;28.27;26.27;;;7.00;99.90;;;;;;5376908;26;20282;-76
2024/04/24 11:43:12;;;;;;;31.98;30.13;;;6.50;99.90;;;;;;5400103;26;19987;-76
2024/04/24 11:45:39;;;;;;;32.10;29.80;;;6.10;99.90;;;;;;5399520;26;20006;-74
2024/04/24 11:48:07;;;;;;;34.58;31.90;;;5.90;99.90;;;;;;5409657;26;20042;-75
2024/04/24 11:50:35;;;;;;;37.50;35.05;;;6.30;99.90;;;;;;5385726;26;20812;-77
2024/04/24 11:53:03;;;;;;;40.53;38.03;;;6.40;99.90;;;;;;5384656;26;20050;-75
2024/04/24 11:55:34;;;;;;;36.85;34.75;;;6.90;99.90;;;;;;5340247;26;20005;-75
2024/04/24 11:58:11;;;;;;;35.83;33.72;;;7.20;99.90;;;;;;5348147;26;20003;-75
2024/04/24 12:00:40;;;;;;;43.38;40.90;;;7.10;99.90;;;;;;5339038;26;20003;-76
2024/04/24 12:03:08;;;;;;;42.20;39.83;;;6.90;99.90;;;;;;5355411;26;20008;-76
2024/04/24 12:05:35;;;;;;;37.00;34.63;;;7.40;99.90;;;;;;5370280;26;20065;-76
2024/04/24 12:08:03;;;;;;;36.22;34.17;;;7.90;99.90;;;;;;5380427;26;20015;-76
2024/04/24 12:10:32;;;;;;;37.85;35.65;;;7.60;99.90;;;;;;5376423;26;20010;-76
2024/04/24 12:12:59;;;;;;;35.70;33.55;;;7.40;99.90;;;;;;5378400;26;20377;-77
2024/04/24 12:15:26;;;;;;;33.28;31.40;;;7.10;99.90;;;;;;5376093;26;20026;-76
2024/04/24 12:17:53;;;;;;;33.95;31.83;;;6.70;99.90;;;;;;5375767;26;19999;-75
2024/04/24 12:20:21;;;;;;;33.13;31.02;;;6.60;99.90;;;;;;5379888;26;20014;-75
2024/04/24 12:22:52;;;;;;;33.58;31.50;;;6.80;99.90;;;;;;5341143;26;20030;-76
2024/04/24 12:25:19;;;;;;;31.90;29.67;;;6.80;99.90;;;;;;5373991;26;20012;-74
2024/04/24 12:27:47;;;;;;;31.10;29.15;;;6.70;99.90;;;;;;5365849;26;20018;-74
2024/04/24 12:30:14;;;;;;;34.55;32.53;;;6.50;99.90;;;;;;5382166;26;20090;-75
2024/04/24 12:32:41;;;;;;;34.30;32.15;;;6.50;99.90;;;;;;5341729;26;19995;-75
2024/04/24 12:35:09;;;;;;;38.30;35.72;;;6.60;99.90;;;;;;5374984;26;20009;-76
2024/04/24 12:37:36;;;;;;;34.75;32.55;;;6.70;99.90;;;;;;5339518;26;20026;-75
2024/04/24 12:40:05;;;;;;;33.50;31.52;;;6.80;99.90;;;;;;5379344;26;20576;-75
2024/04/24 12:42:32;;;;;;;43.83;41.00;;;7.00;99.90;;;;;;5333392;26;20022;-75
2024/04/24 12:45:02;;;;;;;35.50;33.40;;;7.40;99.90;;;;;;5328838;26;20035;-73